Time;durP1;ratioP1;P1;durP2;ratioP2;P2;SDS_P1;SDS_P2;PMS_P1;PMS_P2;Temp;Humidity;BMP_temperature;BMP_pressure;BME280_temperature;BME280_humidity;BME280_pressure;Samples;Min_cycle;Max_cycle;Signal;HPM_P1;HPM_P2
2022/07/04 00:00:23;;;;;;;4.50;4.10;;;;;;;19.09;69.09;98520.69;105966;1280;22614;-78
2022/07/04 00:03:03;;;;;;;5.40;4.30;;;;;;;19.03;69.25;98522.51;106064;1280;138601;-78
2022/07/04 00:05:30;;;;;;;4.50;3.60;;;;;;;18.99;69.53;98519.02;105938;1280;31905;-78
2022/07/04 00:07:56;;;;;;;5.60;4.30;;;;;;;18.98;69.65;98515.56;105632;1280;138618;-78
2022/07/04 00:10:23;;;;;;;5.10;4.10;;;;;;;18.94;69.72;98515.13;105744;1280;24270;-78
2022/07/04 00:12:53;;;;;;;4.90;4.40;;;;;;;18.91;70.01;98513.08;106191;1280;22580;-78
2022/07/04 00:15:19;;;;;;;4.60;4.10;;;;;;;18.86;70.16;98511.17;105851;1281;137738;-79
2022/07/04 00:17:48;;;;;;;5.50;4.20;;;;;;;18.80;70.32;98511.77;106126;1280;24262;-79
2022/07/04 00:20:14;;;;;;;4.90;4.10;;;;;;;18.72;70.45;98511.23;105889;1280;138058;-79
2022/07/04 00:22:40;;;;;;;4.30;3.60;;;;;;;18.58;70.52;98513.44;106070;1280;25413;-79
2022/07/04 00:25:07;;;;;;;5.10;4.20;;;;;;;18.44;70.82;98509.38;106166;1280;22554;-79
2022/07/04 00:27:35;;;;;;;5.30;3.90;;;;;;;18.32;71.34;98507.55;106099;1280;22711;-78
2022/07/04 00:30:08;;;;;;;5.80;4.40;;;;;;;18.26;71.58;98503.98;106075;1280;25371;-79
2022/07/04 00:32:34;;;;;;;5.20;4.20;;;;;;;18.21;71.97;98500.13;106269;1280;137442;-79
2022/07/04 00:35:00;;;;;;;4.90;4.20;;;;;;;18.18;72.08;98496.09;106048;1280;22600;-79
2022/07/04 00:37:27;;;;;;;4.20;3.80;;;;;;;18.14;72.18;98494.30;105790;1280;138876;-79
2022/07/04 00:39:55;;;;;;;5.30;3.90;;;;;;;18.09;72.44;98491.39;105995;1280;23308;-79
2022/07/04 00:42:21;;;;;;;4.80;4.00;;;;;;;18.05;72.71;98489.63;106634;1277;22579;-79
2022/07/04 00:44:50;;;;;;;5.30;4.50;;;;;;;18.02;73.00;98490.60;105991;1280;137594;-79
2022/07/04 00:47:32;;;;;;;4.90;4.40;;;;;;;17.99;73.13;98490.96;106124;1280;22856;-79
2022/07/04 00:49:58;;;;;;;4.90;4.30;;;;;;;17.93;73.18;98488.83;105910;1281;137430;-78
2022/07/04 00:52:24;;;;;;;4.30;3.80;;;;;;;17.82;73.22;98490.95;105906;1280;22559;-79
2022/07/04 00:54:50;;;;;;;5.40;4.10;;;;;;;17.78;73.53;98489.77;106101;1280;25585;-79
2022/07/04 00:57:17;;;;;;;6.40;4.50;;;;;;;17.76;73.45;98492.23;106165;1280;137574;-79
2022/07/04 00:59:43;;;;;;;6.50;5.00;;;;;;;17.72;73.24;98489.84;106329;1280;25488;-79
2022/07/04 01:02:09;;;;;;;6.10;4.50;;;;;;;17.67;73.36;98492.05;106068;1280;137769;-79
2022/07/04 01:04:36;;;;;;;5.50;4.30;;;;;;;17.62;73.31;98495.66;106168;1280;22545;-79
2022/07/04 01:07:04;;;;;;;4.30;3.90;;;;;;;17.57;73.46;98498.09;106147;1280;22691;-79
2022/07/04 01:09:30;;;;;;;5.70;4.00;;;;;;;17.54;73.45;98499.39;105971;1280;137548;-79
2022/07/04 01:11:56;;;;;;;6.70;4.20;;;;;;;17.52;73.60;98497.53;106173;1280;22565;-79
2022/07/04 01:14:22;;;;;;;4.80;4.30;;;;;;;17.49;74.05;98494.64;106383;1280;137494;-79
2022/07/04 01:16:49;;;;;;;6.20;4.60;;;;;;;17.45;74.06;98493.02;106096;1280;25330;-81
2022/07/04 01:19:15;;;;;;;5.30;4.40;;;;;;;17.43;74.51;98487.91;105996;1279;137781;-79
2022/07/04 01:21:41;;;;;;;4.50;3.90;;;;;;;17.43;74.49;98485.10;106119;1280;24431;-79
2022/07/04 01:24:11;;;;;;;4.70;4.20;;;;;;;17.46;74.42;98483.55;106280;1280;25528;-79
2022/07/04 01:26:37;;;;;;;7.60;4.50;;;;;;;17.48;74.66;98480.39;105824;1280;137800;-79
2022/07/04 01:29:05;;;;;;;7.30;4.90;;;;;;;17.50;74.62;98483.45;106198;1280;25642;-79
2022/07/04 01:31:32;;;;;;;5.60;4.90;;;;;;;17.50;74.79;98482.46;105842;1280;137796;-79
2022/07/04 01:33:59;;;;;;;5.00;4.30;;;;;;;17.52;74.83;98485.80;105896;1280;22610;-79
2022/07/04 01:36:27;;;;;;;5.50;4.30;;;;;;;17.53;74.89;98481.98;106249;1280;25356;-79
2022/07/04 01:38:55;;;;;;;5.10;4.20;;;;;;;17.56;74.97;98483.02;106066;1280;138323;-79
2022/07/04 01:41:21;;;;;;;5.60;4.70;;;;;;;17.58;75.04;98479.30;106873;1278;22559;-79
2022/07/04 01:43:48;;;;;;;5.20;4.70;;;;;;;17.59;75.11;98479.95;106193;1280;137762;-79
2022/07/04 01:46:14;;;;;;;5.70;4.90;;;;;;;17.58;75.02;98487.39;106199;1280;22560;-79
2022/07/04 01:48:42;;;;;;;5.10;4.60;;;;;;;17.48;74.27;98485.34;106381;1280;25373;-79
2022/07/04 01:51:09;;;;;;;5.50;4.00;;;;;;;17.26;73.95;98484.42;105946;1280;138146;-79
2022/07/04 01:53:38;;;;;;;7.20;4.40;;;;;;;17.15;74.72;98487.39;105890;1280;25270;-79
2022/07/04 01:56:06;;;;;;;5.10;4.60;;;;;;;17.05;74.97;98493.35;105789;1280;138182;-79
2022/07/04 01:58:36;;;;;;;;;;;;;;;16.97;75.53;98492.09;106495;1280;22552;-80
2022/07/04 02:03:45;;;;;;;5.60;4.50;;;;;;;16.91;76.16;98486.40;106176;1280;22633;-80
2022/07/04 02:06:12;;;;;;;6.80;4.80;;;;;;;16.89;76.36;98482.23;106329;1280;25017;-80
2022/07/04 02:11:18;;;;;;;5.40;4.90;;;;;;;16.95;76.69;98485.23;106298;1280;25239;-80
2022/07/04 02:13:44;;;;;;;6.20;5.40;;;;;;;16.94;76.69;98490.08;106296;1280;138959;-80
2022/07/04 02:16:10;;;;;;;5.80;5.20;;;;;;;16.95;76.98;98489.73;106261;1280;22533;-80
2022/07/04 02:18:37;;;;;;;5.70;4.90;;;;;;;16.97;77.10;98491.91;106099;1280;22557;-80
2022/07/04 02:21:20;;;;;;;6.70;5.00;;;;;;;17.01;77.34;98493.60;105909;1280;138445;-80
2022/07/04 02:23:46;;;;;;;7.10;4.50;;;;;;;17.05;77.15;98502.48;106406;1280;22551;-81
2022/07/04 02:26:13;;;;;;;6.50;5.20;;;;;;;17.06;77.34;98502.92;105946;1280;138140;-81
2022/07/04 02:28:40;;;;;;;5.80;5.20;;;;;;;17.04;77.34;98502.45;105957;1280;22566;-81
2022/07/04 02:31:07;;;;;;;5.50;5.00;;;;;;;17.05;77.73;98505.90;106046;1280;25219;-81
2022/07/04 02:33:33;;;;;;;5.40;4.90;;;;;;;17.07;77.43;98509.61;105962;1280;138145;-81
2022/07/04 02:35:59;;;;;;;5.70;5.00;;;;;;;17.07;77.07;98507.98;106013;1280;25326;-81
2022/07/04 02:38:25;;;;;;;5.30;4.80;;;;;;;17.07;77.02;98504.73;105956;1280;137571;-81
2022/07/04 02:40:51;;;;;;;6.00;5.20;;;;;;;17.06;77.06;98505.08;106567;1280;24235;-81
2022/07/04 02:43:18;;;;;;;8.30;5.80;;;;;;;17.05;77.05;98507.10;106025;1280;137969;-80
2022/07/04 02:45:45;;;;;;;6.30;5.30;;;;;;;17.05;77.12;98507.38;106052;1280;25639;-81
2022/07/04 02:48:26;;;;;;;6.00;4.80;;;;;;;17.04;77.35;98504.14;106179;1280;22560;-81
2022/07/04 02:50:53;;;;;;;6.50;5.10;;;;;;;17.05;77.24;98506.06;105800;1280;139024;-81
2022/07/04 02:53:20;;;;;;;6.10;5.50;;;;;;;17.05;77.51;98503.52;106159;1278;25257;-80
2022/07/04 02:55:46;;;;;;;6.70;5.10;;;;;;;17.05;77.59;98502.98;105837;1280;138318;-81
2022/07/04 02:58:12;;;;;;;8.60;5.60;;;;;;;17.06;77.79;98505.84;106081;1280;24246;-81
2022/07/04 03:00:40;;;;;;;4.90;4.40;;;;;;;17.09;77.82;98501.63;106098;1280;24239;-81
2022/07/04 03:03:08;;;;;;;6.80;5.50;;;;;;;17.13;77.77;98505.12;105880;1280;138620;-81
2022/07/04 03:05:34;;;;;;;6.20;5.40;;;;;;;17.15;77.65;98501.91;106094;1280;24315;-81
2022/07/04 03:08:00;;;;;;;6.10;5.50;;;;;;;17.19;77.78;98503.20;106050;1280;137643;-81
2022/07/04 03:10:27;;;;;;;8.20;5.70;;;;;;;17.25;77.77;98503.59;106010;1280;23181;-81
2022/07/04 03:12:53;;;;;;;5.60;5.10;;;;;;;17.31;77.77;98505.86;106191;1280;22566;-81
2022/07/04 03:15:22;;;;;;;7.10;5.10;;;;;;;17.36;77.63;98501.27;106150;1279;138375;-81
2022/07/04 03:17:48;;;;;;;7.00;5.20;;;;;;;17.41;77.67;98496.80;106205;1280;23923;-81
2022/07/04 03:20:21;;;;;;;5.90;5.20;;;;;;;17.45;77.61;98493.73;105775;1280;138247;-82
2022/07/04 03:22:48;;;;;;;6.30;4.90;;;;;;;17.47;77.56;98493.83;106254;1279;22767;-81
2022/07/04 03:25:15;;;;;;;7.90;5.30;;;;;;;17.49;77.63;98495.58;105830;1280;137747;-81
2022/07/04 03:27:41;;;;;;;6.90;4.90;;;;;;;17.53;77.63;98497.69;105961;1280;24308;-82
2022/07/04 03:30:07;;;;;;;5.70;4.80;;;;;;;17.54;77.72;98492.66;106144;1280;24293;-82
2022/07/04 03:32:33;;;;;;;6.50;5.20;;;;;;;17.58;77.61;98498.24;105966;1280;138417;-81
2022/07/04 03:35:00;;;;;;;7.90;5.30;;;;;;;17.64;77.48;98499.63;106112;1280;22548;-81
2022/07/04 03:37:26;;;;;;;7.10;5.10;;;;;;;17.67;77.69;98496.52;105849;1280;138275;-81
2022/07/04 03:39:52;;;;;;;6.90;5.50;;;;;;;17.68;77.67;98502.06;106343;1280;24316;-81
2022/07/04 03:42:18;;;;;;;8.70;5.80;;;;;;;17.68;77.15;98503.23;106727;1280;22557;-81
2022/07/04 03:44:59;;;;;;;5.80;4.80;;;;;;;17.66;76.93;98495.91;105926;1280;138326;-81
2022/07/04 03:47:28;;;;;;;6.80;5.10;;;;;;;17.65;77.01;98495.54;106343;1280;22774;-82
2022/07/04 03:49:58;;;;;;;5.90;4.70;;;;;;;17.65;77.21;98499.77;106000;1280;137750;-84
2022/07/04 03:52:24;;;;;;;5.90;4.90;;;;;;;17.67;77.24;98501.17;106166;1280;22732;-84
2022/07/04 03:54:50;;;;;;;6.40;5.80;;;;;;;17.65;76.97;98503.86;106377;1277;23966;-85
2022/07/04 03:57:17;;;;;;;8.20;5.40;;;;;;;17.55;76.13;98506.52;105941;1280;137490;-83
2022/07/04 03:59:43;;;;;;;8.60;5.30;;;;;;;17.41;75.48;98511.73;106174;1280;22567;-84
2022/07/04 04:02:09;;;;;;;10.80;5.00;;;;;;;17.25;75.37;98509.43;106207;1280;137869;-84
2022/07/04 04:07:20;;;;;;;13.90;5.70;;;;;;;17.07;76.34;98511.92;105969;1280;137848;-85
2022/07/04 04:09:46;;;;;;;6.00;5.30;;;;;;;17.07;76.73;98511.16;106041;1280;25268;-82
2022/07/04 04:12:15;;;;;;;8.40;5.30;;;;;;;17.13;77.32;98506.22;106139;1281;22549;-83
2022/07/04 04:14:41;;;;;;;11.10;6.30;;;;;;;17.21;77.32;98512.27;106265;1280;138320;-83
2022/07/04 04:17:13;;;;;;;9.30;5.50;;;;;;;17.27;77.39;98514.92;106235;1280;24199;-83
2022/07/04 04:19:39;;;;;;;14.20;6.00;;;;;;;17.37;77.35;98514.79;106750;1280;137735;-82
2022/07/04 04:22:05;;;;;;;8.00;5.70;;;;;;;17.45;77.13;98514.99;106030;1281;23030;-84
2022/07/04 04:24:34;;;;;;;;;;;;;;;17.52;77.16;98515.38;106017;1280;22578;-83
2022/07/04 04:27:03;;;;;;;7.00;4.70;;;;;;;17.61;77.11;98516.76;106035;1281;124628;-83
2022/07/04 04:29:30;;;;;;;7.00;5.20;;;;;;;17.71;76.94;98513.70;106283;1280;22566;-83
2022/07/04 04:31:56;;;;;;;9.00;5.50;;;;;;;17.79;76.85;98509.43;105936;1279;137714;-84
2022/07/04 04:34:37;;;;;;;15.20;6.80;;;;;;;17.88;76.92;98511.04;106043;1280;25560;-83
2022/07/04 04:37:03;;;;;;;9.30;6.70;;;;;;;17.89;77.20;98514.77;106080;1280;23451;-82
2022/07/04 04:39:29;;;;;;;8.00;6.20;;;;;;;17.88;77.30;98520.23;105613;1281;672619;-83
2022/07/04 04:41:56;;;;;;;13.50;6.40;;;;;;;17.90;77.38;98518.55;106782;1280;25572;-81
2022/07/04 04:44:24;;;;;;;8.60;6.40;;;;;;;17.95;77.31;98518.55;106082;1280;137752;-80
2022/07/04 04:46:51;;;;;;;12.10;6.70;;;;;;;17.95;77.40;98512.11;106056;1279;22556;-81
2022/07/04 04:49:18;;;;;;;9.10;6.90;;;;;;;18.01;77.49;98508.25;105770;1280;137908;-82
2022/07/04 04:51:44;;;;;;;8.00;6.20;;;;;;;18.06;77.56;98509.67;105847;1280;22605;-82
2022/07/04 04:54:13;;;;;;;7.80;5.50;;;;;;;18.13;77.50;98509.98;105890;1281;25474;-81
2022/07/04 04:56:43;;;;;;;6.70;6.00;;;;;;;18.23;77.32;98510.08;105889;1278;137913;-81
2022/07/04 04:59:09;;;;;;;8.80;6.50;;;;;;;18.34;77.15;98511.89;106034;1281;24233;-81
2022/07/04 05:01:36;;;;;;;9.40;6.60;;;;;;;18.45;76.96;98508.32;105965;1281;137813;-82
2022/07/04 05:04:02;;;;;;;9.30;8.20;;;;;;;18.55;76.74;98500.52;105978;1281;22628;-81
2022/07/04 05:06:28;;;;;;;10.40;7.60;;;;;;;18.65;76.56;98499.96;106215;1280;23207;-81
2022/07/04 05:09:09;;;;;;;10.00;7.10;;;;;;;18.76;76.31;98501.73;105901;1281;138333;-81
2022/07/04 05:11:36;;;;;;;9.50;6.60;;;;;;;18.87;76.08;98503.97;106300;1281;23401;-82
2022/07/04 05:14:05;;;;;;;8.30;7.40;;;;;;;18.98;76.05;98503.31;105982;1280;137582;-82
2022/07/04 05:16:37;;;;;;;8.70;7.30;;;;;;;19.06;75.72;98505.17;106076;1282;22554;-82
2022/07/04 05:19:06;;;;;;;9.30;7.00;;;;;;;19.13;75.48;98504.45;106076;1279;22734;-82
2022/07/04 05:21:32;;;;;;;;;;;;;;;19.21;75.29;98503.52;105743;1281;138335;-82
2022/07/04 05:24:00;;;;;;;8.40;6.70;;;;;;;19.28;75.02;98506.88;105820;1281;22800;-82
2022/07/04 05:26:26;;;;;;;7.10;6.40;;;;;;;19.33;74.79;98514.08;105809;1281;138487;-82
2022/07/04 05:28:53;;;;;;;7.50;6.50;;;;;;;19.40;74.60;98517.17;106028;1281;22592;-82
2022/07/04 05:31:24;;;;;;;10.20;6.90;;;;;;;19.46;74.55;98523.77;106119;1280;138283;-82
2022/07/04 05:33:54;;;;;;;11.10;7.40;;;;;;;19.51;74.30;98521.73;106218;1281;22767;-82
2022/07/04 05:36:21;;;;;;;11.70;6.80;;;;;;;19.53;74.25;98513.70;106242;1281;22569;-81
2022/07/04 05:38:47;;;;;;;9.80;7.00;;;;;;;19.57;74.21;98510.15;105829;1281;138640;-81
2022/07/04 05:41:14;;;;;;;10.70;6.30;;;;;;;19.63;74.16;98511.20;106455;1281;23083;-81
2022/07/04 05:43:43;;;;;;;9.00;6.90;;;;;;;19.68;74.06;98510.63;106063;1281;137835;-81
2022/07/04 05:46:10;;;;;;;17.00;7.60;;;;;;;19.74;74.03;98511.58;106262;1281;25264;-81
2022/07/04 05:48:36;;;;;;;13.60;7.30;;;;;;;19.83;73.84;98508.94;106322;1280;22573;-81
2022/07/04 05:51:03;;;;;;;15.90;7.30;;;;;;;19.90;73.69;98509.86;106385;1280;137825;-81
2022/07/04 05:53:29;;;;;;;11.80;6.90;;;;;;;19.96;73.37;98511.78;106285;1280;23289;-81
2022/07/04 05:55:56;;;;;;;13.30;6.10;;;;;;;20.05;73.63;98512.45;106398;1281;139249;-81
2022/07/04 05:58:22;;;;;;;11.00;6.10;;;;;;;20.16;73.42;98517.10;106186;1281;22611;-81
2022/07/04 06:00:48;;;;;;;14.00;6.50;;;;;;;20.26;73.08;98517.74;106068;1281;24221;-81
2022/07/04 06:03:14;;;;;;;15.10;7.60;;;;;;;20.34;72.96;98517.08;105850;1281;137836;-73
2022/07/04 06:05:41;;;;;;;11.70;7.40;;;;;;;20.43;72.70;98517.55;106177;1281;25324;-82
2022/07/04 06:08:07;;;;;;;12.90;6.80;;;;;;;20.52;72.68;98520.69;106238;1281;137920;-79
2022/07/04 06:10:33;;;;;;;11.70;6.40;;;;;;;20.58;72.48;98526.52;105995;1280;23397;-82
2022/07/04 06:12:59;;;;;;;13.40;6.30;;;;;;;20.66;72.43;98533.80;106608;1281;22716;-79
2022/07/04 06:15:26;;;;;;;9.40;6.00;;;;;;;20.76;72.28;98532.51;106593;1280;138475;-80
2022/07/04 06:17:52;;;;;;;14.50;6.70;;;;;;;20.87;72.31;98530.25;106630;1279;24322;-80
2022/07/04 06:20:18;;;;;;;19.70;7.60;;;;;;;20.95;72.08;98526.02;106553;1281;137880;-80
2022/07/04 06:22:47;;;;;;;13.50;6.60;;;;;;;21.03;71.75;98529.58;106347;1280;30551;-78
2022/07/04 06:25:15;;;;;;;11.40;7.50;;;;;;;21.12;71.36;98526.30;106331;1281;25425;-80
2022/07/04 06:27:43;;;;;;;13.00;7.10;;;;;;;21.19;70.95;98519.42;106369;1280;138840;-80
2022/07/04 06:30:10;;;;;;;16.90;7.20;;;;;;;21.27;70.53;98513.04;106816;1280;22718;-81
2022/07/04 06:32:49;;;;;;;11.20;6.80;;;;;;;21.34;70.17;98513.64;106225;1281;138726;-78
2022/07/04 06:38:02;;;;;;;7.40;6.60;;;;;;;21.56;69.45;98509.03;106366;1280;138541;-78
2022/07/04 06:40:28;;;;;;;11.70;6.50;;;;;;;21.64;69.12;98502.66;106900;1278;23310;-78
2022/07/04 06:42:54;;;;;;;13.00;6.20;;;;;;;21.74;68.69;98501.34;105990;1281;22648;-78
2022/07/04 06:45:20;;;;;;;10.40;6.50;;;;;;;21.84;68.24;98494.94;106094;1281;138211;-78
2022/07/04 06:47:47;;;;;;;10.30;6.40;;;;;;;21.92;67.66;98495.30;106844;1278;23170;-78
2022/07/04 06:50:13;;;;;;;8.50;6.00;;;;;;;22.00;67.12;98495.59;107143;1281;137748;-79
2022/07/04 06:52:40;;;;;;;8.60;6.30;;;;;;;22.07;66.93;98492.23;106114;1281;25369;-78
2022/07/04 06:55:07;;;;;;;11.30;6.70;;;;;;;22.16;66.86;98497.20;106964;1279;22621;-78
2022/07/04 06:57:33;;;;;;;12.90;6.40;;;;;;;22.25;66.74;98498.40;106044;1281;137735;-78
2022/07/04 07:00:00;;;;;;;14.30;6.80;;;;;;;22.32;66.46;98493.39;106302;1281;24132;-77
2022/07/04 07:02:26;;;;;;;15.70;6.60;;;;;;;22.41;66.44;98498.52;105971;1281;137637;-78
2022/07/04 07:04:56;;;;;;;14.60;7.30;;;;;;;22.51;66.00;98496.77;106609;1280;22592;-78
2022/07/04 07:07:27;;;;;;;16.10;6.50;;;;;;;22.63;65.59;98499.67;106088;1280;138448;-78
2022/07/04 07:09:54;;;;;;;14.00;6.40;;;;;;;22.74;65.07;98504.68;106099;1280;22672;-79
2022/07/04 07:12:22;;;;;;;11.70;6.00;;;;;;;22.85;64.99;98501.04;106622;1280;24306;-78
2022/07/04 07:14:50;;;;;;;11.80;6.40;;;;;;;22.97;64.54;98505.34;106585;1280;139938;-78
2022/07/04 07:17:16;;;;;;;12.40;6.80;;;;;;;23.07;63.91;98500.52;106565;1280;25573;-78
2022/07/04 07:19:43;;;;;;;10.40;6.50;;;;;;;23.18;63.63;98504.48;106171;1280;138440;-78
2022/07/04 07:22:11;;;;;;;12.40;6.40;;;;;;;23.28;63.29;98505.03;106241;1279;22561;-78
2022/07/04 07:24:37;;;;;;;13.00;6.70;;;;;;;23.38;62.78;98497.92;106586;1277;22574;-78
2022/07/04 07:27:04;;;;;;;13.40;6.40;;;;;;;23.49;62.56;98496.90;106051;1280;137829;-78
2022/07/04 07:29:31;;;;;;;8.20;6.20;;;;;;;23.60;62.30;98494.81;106185;1279;22580;-78
2022/07/04 07:31:58;;;;;;;8.30;6.30;;;;;;;23.70;61.75;98490.09;106049;1280;137672;-78
2022/07/04 07:34:25;;;;;;;9.40;6.40;;;;;;;23.79;61.10;98483.12;105853;1280;23711;-80
2022/07/04 07:36:51;;;;;;;9.00;5.90;;;;;;;23.92;60.87;98483.89;106496;1280;22566;-80
2022/07/04 07:39:17;;;;;;;7.10;5.90;;;;;;;24.04;60.36;98486.23;106476;1280;137505;-78
2022/07/04 07:41:44;;;;;;;10.50;6.40;;;;;;;24.16;60.07;98488.24;106992;1279;25407;-78
2022/07/04 07:44:10;;;;;;;9.80;6.70;;;;;;;24.28;59.52;98486.85;106501;1280;137635;-80
2022/07/04 07:46:36;;;;;;;11.60;6.70;;;;;;;24.41;59.00;98484.48;106383;1280;25488;-79
2022/07/04 07:49:03;;;;;;;8.00;5.70;;;;;;;24.56;58.75;98484.55;106122;1280;22566;-79
2022/07/04 07:51:29;;;;;;;7.90;5.60;;;;;;;24.70;58.24;98482.16;106008;1280;138014;-78
2022/07/04 07:53:56;;;;;;;11.10;6.00;;;;;;;24.86;57.01;98479.66;106677;1280;23930;-79
2022/07/04 07:56:22;;;;;;;8.60;5.60;;;;;;;24.99;56.57;98480.98;106415;1278;137850;-78
2022/07/04 07:58:50;;;;;;;6.40;5.80;;;;;;;25.11;55.35;98484.92;106586;1280;22638;-78
2022/07/04 08:01:16;;;;;;;6.80;6.10;;;;;;;25.23;54.96;98485.03;106154;1281;22619;-78
2022/07/04 08:06:25;;;;;;;7.70;5.80;;;;;;;25.56;53.58;98482.34;106485;1280;22827;-79
2022/07/04 08:08:51;;;;;;;8.40;6.20;;;;;;;25.71;52.87;98481.85;106179;1280;138034;-78
2022/07/04 08:11:18;;;;;;;9.40;5.60;;;;;;;25.82;51.98;98481.89;105981;1280;24501;-78
2022/07/04 08:13:45;;;;;;;7.50;6.40;;;;;;;25.91;51.50;98485.73;106135;1280;138347;-79
2022/07/04 08:16:12;;;;;;;6.90;5.40;;;;;;;26.05;51.13;98489.15;106173;1277;23335;-78
2022/07/04 08:18:39;;;;;;;5.80;5.10;;;;;;;26.19;49.85;98485.88;106220;1280;22575;-78
2022/07/04 08:21:05;;;;;;;7.40;5.60;;;;;;;26.28;49.21;98482.67;106090;1280;137616;-79
2022/07/04 08:23:33;;;;;;;6.50;5.90;;;;;;;26.33;48.75;98483.36;106272;1280;22580;-79
2022/07/04 08:26:00;;;;;;;7.00;5.20;;;;;;;26.47;49.33;98487.89;106240;1280;137713;-79
2022/07/04 08:28:28;;;;;;;6.80;5.40;;;;;;;26.64;48.57;98483.57;106038;1280;22570;-79
2022/07/04 08:30:56;;;;;;;8.80;5.30;;;;;;;26.82;48.23;98483.03;106065;1280;25931;-79
2022/07/04 08:33:23;;;;;;;5.90;5.20;;;;;;;26.99;47.89;98482.32;106384;1279;138134;-79
2022/07/04 08:35:50;;;;;;;7.80;5.50;;;;;;;27.15;47.82;98488.62;106072;1280;23936;-78
2022/07/04 08:38:17;;;;;;;6.50;5.40;;;;;;;27.30;47.59;98492.52;106334;1280;137728;-78
2022/07/04 08:40:44;;;;;;;5.40;4.80;;;;;;;27.43;46.98;98492.65;106789;1280;25436;-78
2022/07/04 08:43:14;;;;;;;5.80;5.20;;;;;;;27.56;46.43;98491.87;106293;1280;22733;-78
2022/07/04 08:45:41;;;;;;;6.90;4.90;;;;;;;27.69;46.28;98488.33;106230;1277;137504;-78
2022/07/04 08:48:09;;;;;;;6.80;5.10;;;;;;;27.85;45.92;98490.67;106288;1280;25390;-82
2022/07/04 08:50:47;;;;;;;9.10;5.10;;;;;;;27.92;44.54;98487.05;105970;1280;137752;-82
2022/07/04 08:53:18;;;;;;;6.10;3.90;;;;;;;27.97;44.23;98487.01;106265;1280;24254;-82
2022/07/04 08:58:31;;;;;;;6.90;5.00;;;;;;;28.02;44.38;98492.66;106470;1278;23933;-82
2022/07/04 09:01:07;;;;;;;6.70;5.60;;;;;;;28.03;44.52;98499.23;106310;1280;25383;-82
2022/07/04 09:03:34;;;;;;;9.00;5.90;;;;;;;27.92;45.40;98496.64;106416;1280;137622;-82
2022/07/04 09:06:01;;;;;;;7.50;5.40;;;;;;;28.02;45.84;98493.15;106050;1281;22722;-81
2022/07/04 09:08:27;;;;;;;6.50;4.70;;;;;;;28.23;45.25;98500.77;106046;1280;137504;-81
2022/07/04 09:10:54;;;;;;;5.50;5.00;;;;;;;28.40;43.31;98499.93;106288;1280;24250;-82
2022/07/04 09:13:21;;;;;;;7.10;5.20;;;;;;;28.50;43.02;98504.17;106087;1280;137668;-81
2022/07/04 09:15:50;;;;;;;8.60;5.80;;;;;;;28.69;43.56;98500.48;106473;1280;25465;-83
2022/07/04 09:18:24;;;;;;;5.90;5.30;;;;;;;28.86;43.27;98495.40;106533;1279;25268;-81
2022/07/04 09:20:52;;;;;;;7.60;6.40;;;;;;;29.05;43.16;98491.34;106086;1280;137657;-81
2022/07/04 09:23:25;;;;;;;8.60;5.70;;;;;;;29.22;42.72;98483.23;106171;1280;24215;-81
2022/07/04 09:26:11;;;;;;;7.40;5.10;;;;;;;29.43;42.99;98487.11;106531;1280;138281;-82
2022/07/04 09:28:39;;;;;;;4.40;4.00;;;;;;;29.54;39.22;98483.07;106261;1280;24272;-81
2022/07/04 09:31:21;;;;;;;6.00;3.70;;;;;;;29.57;38.17;98484.82;106536;1279;25106;-82
2022/07/04 09:33:55;;;;;;;5.40;4.20;;;;;;;29.63;36.97;98482.11;106253;1280;23294;-82
2022/07/04 09:36:25;;;;;;;6.60;4.70;;;;;;;29.59;37.53;98478.18;106177;1280;22548;-78
2022/07/04 09:39:20;;;;;;;5.20;4.30;;;;;;;29.68;38.44;98477.86;106571;1279;137611;-78
2022/07/04 09:42:04;;;;;;;4.60;4.00;;;;;;;29.95;37.84;98475.02;107019;1280;24286;-84
2022/07/04 09:44:36;;;;;;;4.20;3.90;;;;;;;30.14;37.15;98479.19;106208;1280;137567;-83
2022/07/04 09:47:22;;;;;;;6.10;4.00;;;;;;;30.36;36.29;98475.64;106597;1280;30662;-78
2022/07/04 09:50:02;;;;;;;4.60;3.70;;;;;;;30.41;35.46;98477.51;106167;1280;137683;-82
2022/07/04 09:52:30;;;;;;;4.00;3.60;;;;;;;30.57;35.46;98474.77;106251;1280;23435;-82
2022/07/04 09:55:02;;;;;;;5.50;4.90;;;;;;;30.82;35.16;98472.55;106340;1280;22590;-82
2022/07/04 09:57:30;;;;;;;5.80;5.00;;;;;;;30.98;34.84;98464.85;106102;1280;137730;-81
2022/07/04 09:59:57;;;;;;;5.60;4.60;;;;;;;31.01;35.31;98463.61;106205;1280;22573;-81
2022/07/04 10:02:23;;;;;;;10.30;4.80;;;;;;;31.11;35.36;98458.02;105957;1280;137649;-82
2022/07/04 10:04:51;;;;;;;4.80;4.50;;;;;;;31.25;34.85;98459.15;106279;1280;23354;-81
2022/07/04 10:07:49;;;;;;;4.70;4.40;;;;;;;31.36;34.48;98453.19;106377;1280;30153;-81
2022/07/04 10:10:25;;;;;;;5.60;4.40;;;;;;;31.51;34.64;98451.44;106286;1280;24467;-82
2022/07/04 10:12:54;;;;;;;4.60;3.90;;;;;;;31.56;34.24;98450.45;106381;1280;25258;-81
2022/07/04 10:15:21;;;;;;;5.70;4.80;;;;;;;31.62;33.87;98449.86;106464;1280;137626;-82
2022/07/04 10:17:48;;;;;;;6.50;4.80;;;;;;;31.65;33.51;98443.14;106280;1280;24284;-82
2022/07/04 10:20:15;;;;;;;4.70;4.00;;;;;;;31.69;34.16;98443.34;105966;1280;137620;-83
2022/07/04 10:22:57;;;;;;;4.90;4.50;;;;;;;31.73;33.31;98443.55;106015;1281;23171;-82
2022/07/04 10:25:23;;;;;;;5.00;4.50;;;;;;;31.72;33.80;98439.18;106298;1280;138055;-81
2022/07/04 10:27:51;;;;;;;4.50;4.10;;;;;;;31.68;33.29;98436.41;106320;1279;23960;-82
2022/07/04 10:30:34;;;;;;;5.20;4.30;;;;;;;31.85;33.47;98437.70;106809;1280;23410;-82
2022/07/04 10:33:04;;;;;;;5.70;4.20;;;;;;;32.02;33.09;98441.39;105962;1280;137642;-82
2022/07/04 10:35:56;;;;;;;6.10;4.60;;;;;;;32.06;32.77;98440.02;106063;1280;24237;-82
2022/07/04 10:38:48;;;;;;;5.10;4.70;;;;;;;32.08;32.58;98435.84;106269;1280;137608;-81
2022/07/04 10:41:15;;;;;;;4.50;4.00;;;;;;;32.06;32.02;98435.49;106254;1280;24476;-79
2022/07/04 10:43:56;;;;;;;3.80;3.50;;;;;;;31.86;32.12;98433.45;106189;1280;138207;-80
2022/07/04 10:46:46;;;;;;;4.80;3.90;;;;;;;31.63;32.25;98430.81;106751;1277;23004;-84
2022/07/04 10:49:15;;;;;;;4.70;4.00;;;;;;;31.76;32.39;98429.01;106136;1280;22602;-81
2022/07/04 10:51:50;;;;;;;4.30;4.00;;;;;;;31.95;32.32;98422.74;105962;1280;137799;-79
2022/07/04 10:54:30;;;;;;;3.70;3.40;;;;;;;32.04;32.24;98425.09;106071;1280;22570;-82
2022/07/04 10:56:58;;;;;;;5.10;4.60;;;;;;;32.07;32.41;98428.64;105979;1280;138079;-81
2022/07/04 10:59:27;;;;;;;4.70;4.20;;;;;;;31.99;32.57;98431.30;106340;1280;22710;-82
2022/07/04 11:02:13;;;;;;;6.30;4.80;;;;;;;32.00;32.93;98427.77;106023;1280;138124;-85
2022/07/04 11:04:47;;;;;;;4.80;4.40;;;;;;;32.11;32.72;98428.13;106396;1279;23314;-77
2022/07/04 11:07:18;;;;;;;5.30;4.40;;;;;;;32.04;32.90;98429.91;106256;1280;22719;-78
2022/07/04 11:09:47;;;;;;;7.10;4.60;;;;;;;32.16;33.45;98431.80;106086;1280;137741;-78
2022/07/04 11:12:14;;;;;;;5.20;4.50;;;;;;;32.45;32.36;98428.54;106137;1280;23703;-75
2022/07/04 11:14:45;;;;;;;5.10;4.30;;;;;;;32.66;32.72;98427.71;105915;1280;139495;-75
2022/07/04 11:17:19;;;;;;;4.60;4.20;;;;;;;32.91;32.36;98425.43;105806;1280;23190;-74
2022/07/04 11:19:47;;;;;;;6.40;4.20;;;;;;;33.02;31.66;98425.16;105717;1280;138156;-74
2022/07/04 11:22:22;;;;;;;4.30;4.00;;;;;;;32.87;31.21;98430.34;105715;1280;23181;-74
2022/07/04 11:24:49;;;;;;;4.40;4.10;;;;;;;32.89;31.27;98426.08;105833;1280;24124;-74
2022/07/04 11:27:15;;;;;;;4.40;4.10;;;;;;;33.08;31.13;98423.66;105883;1280;137617;-75
2022/07/04 11:29:51;;;;;;;4.50;4.10;;;;;;;33.26;30.35;98423.27;106334;1280;22557;-74
2022/07/04 11:32:19;;;;;;;5.20;4.20;;;;;;;33.41;30.46;98416.29;106101;1280;138047;-76
2022/07/04 11:34:46;;;;;;;4.80;4.40;;;;;;;33.62;30.33;98423.67;106154;1280;23368;-77
2022/07/04 11:37:13;;;;;;;4.40;3.90;;;;;;;33.60;30.05;98428.02;106413;1279;22691;-77
2022/07/04 11:39:39;;;;;;;4.50;4.00;;;;;;;33.64;29.68;98422.08;106146;1280;137478;-77
2022/07/04 11:47:37;;;;;;;4.80;4.30;;;;;;;33.69;30.41;98411.28;106150;1280;22320;-77
2022/07/04 11:50:05;;;;;;;6.90;4.70;;;;;;;33.70;29.69;98406.02;105787;1280;137771;-77